Time;durP1;ratioP1;P1;durP2;ratioP2;P2;SDS_P1;SDS_P2;PMS_P1;PMS_P2;Temp;Humidity;BMP_temperature;BMP_pressure;BME280_temperature;BME280_humidity;BME280_pressure;Samples;Min_cycle;Max_cycle;Signal;HPM_P1;HPM_P2
2022/12/17 13:06:37;;;;;;;1999.90;999.90;;;;;;;3.18;100.00;98407.34;5050122;28;20099;-76
2022/12/17 13:09:14;;;;;;;1999.90;999.90;;;;;;;3.26;100.00;98402.66;5050171;28;20094;-78
2022/12/17 13:11:41;;;;;;;1999.90;999.90;;;;;;;3.18;100.00;98415.47;5049839;28;20044;-75
2022/12/17 13:14:27;;;;;;;1999.90;999.90;;;;;;;2.90;100.00;98412.66;5051950;28;20033;-76
2022/12/17 13:17:06;;;;;;;1999.90;999.90;;;;;;;3.15;100.00;98418.63;5069999;28;20059;-76
2022/12/17 13:19:40;;;;;;;1999.90;999.90;;;;;;;3.31;100.00;98424.38;5058024;28;20425;-76
2022/12/17 13:22:10;;;;;;;1999.90;999.90;;;;;;;3.30;100.00;98426.25;5047497;28;20065;-76
2022/12/17 13:24:36;;;;;;;1999.90;999.90;;;;;;;3.37;100.00;98428.84;5048585;28;20033;-76
2022/12/17 13:27:02;;;;;;;1999.90;999.90;;;;;;;3.23;100.00;98415.56;5050459;28;20485;-77
2022/12/17 13:29:31;;;;;;;1999.90;999.90;;;;;;;3.31;100.00;98438.72;5049121;28;20032;-76
2022/12/17 13:31:59;;;;;;;1999.90;999.90;;;;;;;3.23;100.00;98445.28;5049611;28;20064;-76
2022/12/17 13:34:33;;;;;;;1999.90;999.90;;;;;;;3.11;100.00;98452.59;5049349;28;20021;-75
2022/12/17 13:37:16;;;;;;;1999.90;999.90;;;;;;;3.15;100.00;98447.53;5048626;28;20060;-77
2022/12/17 13:39:56;;;;;;;1999.90;999.90;;;;;;;2.99;100.00;98451.78;5050086;28;20025;-76
2022/12/17 13:42:29;;;;;;;1999.90;999.90;;;;;;;3.09;100.00;98457.41;5051080;28;20033;-76
2022/12/17 13:44:56;;;;;;;1999.90;999.90;;;;;;;3.26;100.00;98460.22;5049473;28;20039;-75
2022/12/17 13:47:27;;;;;;;1999.90;999.90;;;;;;;3.16;100.00;98460.00;5049152;28;20107;-77
2022/12/17 13:49:56;;;;;;;1999.90;999.90;;;;;;;3.13;100.00;98463.19;5049820;28;20013;-75
2022/12/17 13:52:26;;;;;;;1999.90;999.90;;;;;;;3.00;100.00;98472.34;5050150;28;20362;-76
2022/12/17 13:54:52;;;;;;;1999.90;999.90;;;;;;;2.98;100.00;98479.84;5049701;28;20025;-75
2022/12/17 13:57:24;;;;;;;1999.90;999.90;;;;;;;2.87;100.00;98480.66;5050083;28;20039;-75
2022/12/17 13:59:58;;;;;;;1999.90;999.90;;;;;;;2.80;100.00;98495.31;5053358;28;20485;-75
2022/12/17 14:02:28;;;;;;;1999.90;999.90;;;;;;;2.84;100.00;98499.19;5053346;28;20083;-74
2022/12/17 14:04:55;;;;;;;1999.90;999.90;;;;;;;2.88;100.00;98501.19;5053189;28;20481;-74
2022/12/17 14:07:23;;;;;;;1999.90;999.90;;;;;;;2.96;100.00;98508.97;5052157;28;20536;-77
2022/12/17 14:09:48;;;;;;;1999.90;999.90;;;;;;;2.91;100.00;98500.75;5058688;28;20039;-75
2022/12/17 14:12:22;;;;;;;1999.90;999.90;;;;;;;2.92;100.00;98510.47;5060226;28;20021;-75
2022/12/17 14:15:15;;;;;;;1999.90;999.90;;;;;;;2.91;100.00;98519.66;5053011;28;20053;-75
2022/12/17 14:17:46;;;;;;;1999.90;999.90;;;;;;;2.92;100.00;98537.50;5053140;28;20041;-75
2022/12/17 14:20:16;;;;;;;1999.90;999.90;;;;;;;2.95;100.00;98534.34;5053114;28;20036;-75
2022/12/17 14:22:43;;;;;;;1999.90;999.90;;;;;;;2.96;100.00;98536.00;5053170;28;20036;-74
2022/12/17 14:25:16;;;;;;;1999.90;999.90;;;;;;;2.92;100.00;98534.81;5052924;28;20187;-74
2022/12/17 14:27:52;;;;;;;1999.90;999.90;;;;;;;2.97;100.00;98550.31;5053534;28;20041;-74
2022/12/17 14:30:34;;;;;;;1999.90;999.90;;;;;;;3.00;100.00;98556.09;5052844;28;20459;-73
2022/12/17 14:32:59;;;;;;;1999.90;999.90;;;;;;;3.03;100.00;98563.72;5053175;28;20044;-73
2022/12/17 14:35:28;;;;;;;1999.90;999.90;;;;;;;2.98;100.00;98558.19;5052909;28;20029;-73
2022/12/17 14:37:54;;;;;;;1999.90;999.90;;;;;;;2.88;100.00;98566.03;5052946;28;20435;-74
2022/12/17 14:40:21;;;;;;;1999.90;999.90;;;;;;;2.92;100.00;98564.50;5052778;28;20143;-74
2022/12/17 14:42:47;;;;;;;1999.90;999.90;;;;;;;2.92;100.00;98583.44;5051410;28;20025;-74
2022/12/17 14:45:15;;;;;;;1999.90;999.90;;;;;;;2.96;100.00;98589.19;5059646;28;20033;-75
2022/12/17 14:47:53;;;;;;;1999.90;999.90;;;;;;;2.91;100.00;98584.50;5073961;28;20431;-74
2022/12/17 14:50:18;;;;;;;1999.90;999.90;;;;;;;3.00;100.00;98595.78;5065984;28;20027;-75
2022/12/17 14:52:54;;;;;;;1999.90;999.90;;;;;;;2.89;100.00;98597.41;5057495;28;20389;-75
2022/12/17 14:55:29;;;;;;;1999.90;999.90;;;;;;;2.92;100.00;98601.50;5044853;28;20554;-75
2022/12/17 14:58:06;;;;;;;1999.90;999.90;;;;;;;2.93;100.00;98605.88;5052071;28;20055;-73
2022/12/17 15:00:32;;;;;;;1999.90;999.90;;;;;;;2.91;100.00;98608.81;5051358;28;20082;-75
2022/12/17 15:02:57;;;;;;;1999.90;999.90;;;;;;;2.88;100.00;98603.84;5051433;28;20112;-76
2022/12/17 15:05:23;;;;;;;1999.90;999.90;;;;;;;2.87;100.00;98610.31;5053240;28;20509;-75
2022/12/17 15:07:48;;;;;;;1999.90;999.90;;;;;;;2.77;100.00;98620.84;5051539;28;20033;-74
2022/12/17 15:10:18;;;;;;;1999.90;999.90;;;;;;;2.80;100.00;98614.16;5046014;28;20422;-75
2022/12/17 15:12:44;;;;;;;1999.90;999.90;;;;;;;2.82;100.00;98631.78;5050287;28;20048;-75
2022/12/17 15:15:14;;;;;;;1999.90;999.90;;;;;;;2.72;100.00;98626.91;5050834;28;20045;-74
2022/12/17 15:17:40;;;;;;;1999.90;999.90;;;;;;;2.69;100.00;98637.38;5050938;28;20085;-76
2022/12/17 15:20:08;;;;;;;1999.90;999.90;;;;;;;2.74;100.00;98636.69;5050355;28;20116;-75
2022/12/17 15:22:35;;;;;;;1999.90;999.90;;;;;;;2.84;100.00;98645.06;5052196;28;20009;-75
2022/12/17 15:25:01;;;;;;;1999.90;999.90;;;;;;;2.68;100.00;98643.81;5053042;28;20116;-76
2022/12/17 15:27:26;;;;;;;1999.90;999.90;;;;;;;2.74;100.00;98651.00;5053743;28;20025;-77
2022/12/17 15:29:51;;;;;;;1999.90;999.90;;;;;;;2.60;100.00;98639.53;5053348;28;20025;-76
2022/12/17 15:32:22;;;;;;;1999.90;999.90;;;;;;;2.55;100.00;98625.09;5051177;28;20024;-76
2022/12/17 15:34:49;;;;;;;1999.90;999.90;;;;;;;2.62;100.00;98650.13;5050284;28;20029;-76
2022/12/17 15:37:15;;;;;;;1999.90;999.90;;;;;;;2.59;100.00;98651.41;5071204;28;20021;-76
2022/12/17 15:39:40;;;;;;;1999.90;999.90;;;;;;;2.52;100.00;98656.06;5069690;28;20024;-76
2022/12/17 15:44:51;;;;;;;1999.90;999.90;;;;;;;2.59;100.00;98664.91;5069895;28;20047;-76
2022/12/17 15:47:16;;;;;;;1999.90;999.90;;;;;;;2.59;100.00;98669.50;5069868;28;20028;-76
2022/12/17 15:49:43;;;;;;;1999.90;999.90;;;;;;;2.59;100.00;98664.09;5069840;28;20037;-76
2022/12/17 15:52:09;;;;;;;1999.90;999.90;;;;;;;2.61;100.00;98679.00;5051932;28;20029;-76
2022/12/17 15:54:34;;;;;;;1999.90;999.90;;;;;;;2.52;100.00;98682.22;5048472;28;20028;-75
2022/12/17 15:56:59;;;;;;;1999.90;999.90;;;;;;;2.52;100.00;98684.94;5047997;28;20021;-75
2022/12/17 15:59:25;;;;;;;1999.90;999.90;;;;;;;2.52;100.00;98693.03;5050448;28;20029;-76
2022/12/17 16:01:50;;;;;;;1999.90;999.90;;;;;;;2.52;100.00;98704.66;5048985;28;20370;-76
2022/12/17 16:04:15;;;;;;;1999.90;999.90;;;;;;;2.51;100.00;98704.88;5049469;28;20786;-78
2022/12/17 16:06:41;;;;;;;1999.90;999.90;;;;;;;2.44;100.00;98698.75;5048494;28;20053;-76
2022/12/17 16:09:06;;;;;;;1999.90;999.90;;;;;;;2.48;100.00;98700.75;5049949;28;20025;-76
2022/12/17 16:11:31;;;;;;;1999.90;999.90;;;;;;;2.52;100.00;98711.94;5050081;28;20029;-76
2022/12/17 16:13:57;;;;;;;1999.90;999.90;;;;;;;2.51;100.00;98730.00;5050397;28;20059;-76
2022/12/17 16:16:22;;;;;;;1999.90;999.90;;;;;;;2.50;100.00;98727.53;5050903;28;20093;-76
2022/12/17 16:18:48;;;;;;;1999.90;999.90;;;;;;;2.42;100.00;98708.94;5053105;28;20084;-77
2022/12/17 16:21:14;;;;;;;1999.90;999.90;;;;;;;2.49;100.00;98717.78;5065336;28;20091;-86
2022/12/17 16:23:39;;;;;;;1999.90;999.90;;;;;;;2.52;100.00;98723.56;5076325;28;20484;-78
2022/12/17 16:26:06;;;;;;;1999.90;999.90;;;;;;;2.53;100.00;98725.22;5080656;28;20046;-83
2022/12/17 16:28:33;;;;;;;1999.90;999.90;;;;;;;2.58;100.00;98738.84;5078911;28;20021;-78
2022/12/17 16:30:58;;;;;;;1999.90;999.90;;;;;;;2.54;100.00;98742.22;5074184;28;20028;-75
2022/12/17 16:33:23;;;;;;;1999.90;999.90;;;;;;;2.55;100.00;98735.78;5075039;28;20040;-87
2022/12/17 16:35:53;;;;;;;1999.90;999.90;;;;;;;2.60;100.00;98744.06;5055743;28;20559;-75
2022/12/17 16:38:18;;;;;;;1999.90;999.90;;;;;;;2.52;100.00;98744.31;5070119;28;20036;-76
2022/12/17 16:40:43;;;;;;;1999.90;999.90;;;;;;;2.44;100.00;98747.34;5058700;28;20029;-78
2022/12/17 16:43:09;;;;;;;1999.90;999.90;;;;;;;2.59;100.00;98750.50;5049633;28;20078;-76
2022/12/17 16:45:44;;;;;;;1999.90;999.90;;;;;;;2.56;100.00;98745.53;5044782;28;20059;-80
2022/12/17 16:48:10;;;;;;;1999.90;999.90;;;;;;;2.52;100.00;98760.53;5050170;28;20490;-77
2022/12/17 16:50:35;;;;;;;1999.90;999.90;;;;;;;2.46;100.00;98761.41;5053529;28;20055;-81
2022/12/17 16:53:00;;;;;;;1999.90;999.90;;;;;;;2.44;100.00;98764.38;5066505;28;20021;-84
2022/12/17 16:55:25;;;;;;;1999.90;999.90;;;;;;;2.45;100.00;98767.88;5065414;28;20025;-82
2022/12/17 16:57:51;;;;;;;1999.90;999.90;;;;;;;2.45;100.00;98771.41;5068548;28;20025;-84
2022/12/17 17:00:16;;;;;;;1999.90;999.90;;;;;;;2.46;100.00;98764.97;5067660;28;20055;-82
2022/12/17 17:02:42;;;;;;;1999.90;999.90;;;;;;;2.48;100.00;98773.66;5057527;28;20572;-82
2022/12/17 17:05:07;;;;;;;1999.90;999.90;;;;;;;2.45;100.00;98781.34;5055112;28;20029;-82
2022/12/17 17:07:32;;;;;;;1999.90;999.90;;;;;;;2.39;100.00;98772.28;5053988;28;20036;-81
2022/12/17 17:09:58;;;;;;;1999.90;999.90;;;;;;;2.42;100.00;98771.00;5053784;28;20495;-80
2022/12/17 17:12:25;;;;;;;1999.90;999.90;;;;;;;2.49;100.00;98788.81;5050400;28;20037;-82
2022/12/17 17:14:50;;;;;;;1999.90;999.90;;;;;;;2.45;100.00;98792.16;5053079;28;20397;-81
2022/12/17 17:17:15;;;;;;;1999.90;999.90;;;;;;;2.42;100.00;98788.03;5051991;28;20025;-76
2022/12/17 17:19:41;;;;;;;1999.90;999.90;;;;;;;2.37;100.00;98793.28;5051805;28;20024;-85
2022/12/17 17:22:06;;;;;;;1999.90;999.90;;;;;;;2.43;100.00;98805.91;5050170;28;20037;-81
2022/12/17 17:24:31;;;;;;;1999.90;999.90;;;;;;;2.40;100.00;98816.31;5059667;28;20040;-83
2022/12/17 17:26:57;;;;;;;1999.90;999.90;;;;;;;2.37;100.00;98820.28;5070611;28;20029;-85
2022/12/17 17:29:22;;;;;;;1999.90;999.90;;;;;;;2.35;100.00;98818.84;5068661;28;20037;-83
2022/12/17 17:31:48;;;;;;;1999.90;999.90;;;;;;;2.36;100.00;98823.19;5066425;28;20056;-83
2022/12/17 17:34:14;;;;;;;1999.90;999.90;;;;;;;2.38;100.00;98826.50;5066218;28;20033;-84
2022/12/17 17:36:39;;;;;;;1999.90;999.90;;;;;;;2.43;100.00;98830.19;5067250;28;20044;-85
2022/12/17 17:39:05;;;;;;;1999.90;999.90;;;;;;;2.40;100.00;98838.72;5069787;28;20029;-84
2022/12/17 17:41:32;;;;;;;1999.90;999.90;;;;;;;2.36;100.00;98834.81;5076927;28;20052;-85
2022/12/17 17:44:01;;;;;;;1999.90;999.90;;;;;;;2.48;100.00;98851.09;5084454;28;20404;-84
2022/12/17 17:46:28;;;;;;;1999.90;999.90;;;;;;;2.48;100.00;98853.81;5070630;28;20040;-83
2022/12/17 17:48:56;;;;;;;1999.90;999.90;;;;;;;2.42;100.00;98868.19;5072171;28;20039;-85
2022/12/17 17:51:24;;;;;;;1999.90;999.90;;;;;;;2.44;100.00;98872.34;5077834;28;20021;-85
2022/12/17 17:53:51;;;;;;;1999.90;999.90;;;;;;;2.45;100.00;98871.28;5069852;28;20607;-87
2022/12/17 17:56:19;;;;;;;1999.90;999.90;;;;;;;2.42;100.00;98874.41;5071867;28;20551;-83
2022/12/17 17:58:47;;;;;;;1999.90;999.90;;;;;;;2.37;100.00;98873.44;5085554;28;20032;-85
2022/12/17 18:01:15;;;;;;;1999.90;999.90;;;;;;;2.41;100.00;98867.34;5078056;28;20055;-82
2022/12/17 18:03:41;;;;;;;1999.90;999.90;;;;;;;2.42;100.00;98868.19;5078661;28;20071;-85
2022/12/17 18:06:09;;;;;;;1999.90;999.90;;;;;;;2.37;100.00;98876.13;5078275;28;20084;-82
2022/12/17 18:08:35;;;;;;;1999.90;999.90;;;;;;;2.33;100.00;98875.75;5080553;28;20454;-82
2022/12/17 18:11:03;;;;;;;1999.90;999.90;;;;;;;2.38;100.00;98885.88;5077441;28;20059;-84
2022/12/17 18:16:13;;;;;;;1999.90;999.90;;;;;;;2.45;100.00;98894.75;5081573;28;20059;-83
2022/12/17 18:18:39;;;;;;;1999.90;999.90;;;;;;;2.38;100.00;98889.38;5070081;28;20029;-81
2022/12/17 18:21:10;;;;;;;1999.90;999.90;;;;;;;2.50;100.00;98894.94;5065618;28;20020;-87
2022/12/17 18:23:35;;;;;;;1999.90;999.90;;;;;;;2.44;100.00;98906.59;5088922;28;20084;-86
2022/12/17 18:26:09;;;;;;;1999.90;999.90;;;;;;;2.41;100.00;98901.66;5088801;28;20054;-86
2022/12/17 18:28:36;;;;;;;1999.90;999.90;;;;;;;2.37;100.00;98900.44;5090014;28;20025;-84
2022/12/17 18:31:13;;;;;;;1999.90;999.90;;;;;;;2.41;100.00;98910.53;5088924;28;20028;-86
2022/12/17 18:33:43;;;;;;;1999.90;999.90;;;;;;;2.40;100.00;98908.09;5070056;28;20056;-86
2022/12/17 18:36:10;;;;;;;1999.90;999.90;;;;;;;2.40;100.00;98922.41;5072183;28;20040;-84
2022/12/17 18:38:35;;;;;;;1999.90;999.90;;;;;;;2.35;100.00;98924.13;5091496;28;20040;-86
2022/12/17 18:44:02;;;;;;;1999.90;999.90;;;;;;;2.33;100.00;98932.41;5068770;28;20036;-85
2022/12/17 18:46:29;;;;;;;1999.90;999.90;;;;;;;2.26;100.00;98928.94;5074573;28;20031;-82
2022/12/17 18:48:59;;;;;;;1999.90;999.90;;;;;;;2.29;100.00;98935.78;5071040;28;20055;-82
2022/12/17 18:51:25;;;;;;;1999.90;999.90;;;;;;;2.21;100.00;98939.56;5070388;28;20052;-83
2022/12/17 18:53:51;;;;;;;1999.90;999.90;;;;;;;2.30;100.00;98942.81;5067821;28;20040;-82
2022/12/17 18:56:16;;;;;;;1999.90;999.90;;;;;;;2.32;100.00;98943.44;5068478;28;20025;-82
2022/12/17 18:58:42;;;;;;;1999.90;999.90;;;;;;;2.22;100.00;98935.84;5067877;28;20020;-84
2022/12/17 19:01:18;;;;;;;1999.90;999.90;;;;;;;2.20;100.00;98943.28;5068565;28;20021;-83
2022/12/17 19:03:43;;;;;;;1999.90;999.90;;;;;;;2.21;100.00;98954.94;5067109;28;20025;-83
2022/12/17 19:06:09;;;;;;;1999.90;999.90;;;;;;;2.22;100.00;98956.59;5068564;28;20117;-83
2022/12/17 19:08:35;;;;;;;1999.90;999.90;;;;;;;2.12;100.00;98955.19;5093091;28;20043;-81
2022/12/17 19:11:06;;;;;;;1999.90;999.90;;;;;;;2.23;100.00;98969.00;5090759;28;20059;-82
2022/12/17 19:13:32;;;;;;;1999.90;999.90;;;;;;;2.21;100.00;98973.81;5068923;28;20013;-85
2022/12/17 19:16:13;;;;;;;1999.90;999.90;;;;;;;2.28;100.00;98985.41;5066362;28;20025;-81
2022/12/17 19:18:39;;;;;;;1999.90;999.90;;;;;;;2.21;100.00;98988.13;5063552;28;20032;-84
2022/12/17 19:21:07;;;;;;;1999.90;999.90;;;;;;;2.19;100.00;98987.53;5063233;28;20059;-82
2022/12/17 19:23:33;;;;;;;1999.90;999.90;;;;;;;2.19;100.00;98998.34;5066561;28;20013;-81
2022/12/17 19:26:16;;;;;;;1999.90;999.90;;;;;;;2.20;100.00;98999.13;5068373;28;20036;-83
2022/12/17 19:28:43;;;;;;;1999.90;999.90;;;;;;;2.17;100.00;99001.22;5088828;28;20052;-81
2022/12/17 19:31:09;;;;;;;1999.90;999.90;;;;;;;2.15;100.00;99003.34;5085310;28;20032;-84
2022/12/17 19:33:35;;;;;;;1999.90;999.90;;;;;;;2.15;100.00;99008.72;5067792;28;20029;-80
2022/12/17 19:36:04;;;;;;;1999.90;999.90;;;;;;;2.14;100.00;99012.47;5069536;28;20088;-84
2022/12/17 19:38:29;;;;;;;1999.90;999.90;;;;;;;2.14;100.00;99023.25;5067824;28;20021;-83
2022/12/17 19:40:54;;;;;;;1999.90;999.90;;;;;;;2.15;100.00;99019.53;5067911;28;20080;-85
2022/12/17 19:43:20;;;;;;;1999.90;999.90;;;;;;;2.16;100.00;99023.84;5077396;28;20029;-80
2022/12/17 19:45:45;;;;;;;1999.90;999.90;;;;;;;2.02;100.00;99014.19;5069078;28;20108;-82
2022/12/17 19:48:13;;;;;;;1999.90;999.90;;;;;;;2.08;100.00;99024.13;5068738;28;20077;-86
2022/12/17 19:50:39;;;;;;;1999.90;999.90;;;;;;;2.10;100.00;99015.78;5069292;28;20032;-87
2022/12/17 19:53:05;;;;;;;1999.90;999.90;;;;;;;2.10;100.00;99021.19;5069033;28;20028;-80
2022/12/17 19:55:30;;;;;;;1999.90;999.90;;;;;;;2.13;100.00;99040.47;5067876;28;20036;-84
2022/12/17 19:57:55;;;;;;;1999.90;999.90;;;;;;;2.10;100.00;99040.91;5083000;28;20025;-87
2022/12/17 20:00:21;;;;;;;1999.90;999.90;;;;;;;2.10;100.00;99038.19;5095407;28;20047;-85
2022/12/17 20:02:46;;;;;;;1999.90;999.90;;;;;;;2.05;100.00;99035.34;5084419;28;20009;-82
2022/12/17 20:05:11;;;;;;;1999.90;999.90;;;;;;;2.06;100.00;99030.78;5075306;28;20024;-85
2022/12/17 20:07:38;;;;;;;1999.90;999.90;;;;;;;2.05;100.00;99034.50;5069312;28;20025;-84
2022/12/17 20:10:04;;;;;;;1999.90;999.90;;;;;;;2.04;100.00;99044.47;5072056;28;20013;-82
2022/12/17 20:12:29;;;;;;;1999.90;999.90;;;;;;;2.12;100.00;99055.03;5082446;28;20028;-82
2022/12/17 20:14:55;;;;;;;1999.90;999.90;;;;;;;2.09;100.00;99052.75;5091210;28;20064;-82
2022/12/17 20:17:20;;;;;;;1999.90;999.90;;;;;;;2.07;100.00;99057.53;5087914;28;20032;-83
2022/12/17 20:19:47;;;;;;;1999.90;999.90;;;;;;;2.02;100.00;99056.50;5074678;28;20013;-82
2022/12/17 20:22:12;;;;;;;1999.90;999.90;;;;;;;2.06;100.00;99058.59;5071318;28;20044;-84
2022/12/17 20:24:38;;;;;;;1999.90;999.90;;;;;;;2.13;100.00;99070.16;5068524;28;20025;-81
2022/12/17 20:27:04;;;;;;;1999.90;999.90;;;;;;;2.10;100.00;99057.09;5070269;28;20032;-83
2022/12/17 20:29:30;;;;;;;1999.90;999.90;;;;;;;2.30;100.00;99069.69;5085156;28;20019;-82
2022/12/17 20:31:55;;;;;;;1999.90;999.90;;;;;;;2.33;100.00;99071.94;5082215;28;20024;-84
2022/12/17 20:34:21;;;;;;;1999.90;999.90;;;;;;;2.20;100.00;99069.28;5074016;28;20030;-83
2022/12/17 20:36:46;;;;;;;1999.90;999.90;;;;;;;2.15;100.00;99062.69;5057915;28;20048;-85
2022/12/17 20:39:11;;;;;;;1999.90;999.90;;;;;;;2.23;100.00;99068.88;5071279;28;20032;-83
2022/12/17 20:41:38;;;;;;;1999.90;999.90;;;;;;;2.13;100.00;99078.25;5069046;28;20047;-79
2022/12/17 20:44:06;;;;;;;1999.90;999.90;;;;;;;2.19;100.00;99084.69;5064361;28;20084;-81
2022/12/17 20:46:35;;;;;;;1999.90;999.90;;;;;;;2.12;100.00;99073.91;5065242;28;20017;-83
2022/12/17 20:49:01;;;;;;;1999.90;999.90;;;;;;;2.14;100.00;99071.81;5078346;28;20032;-83
2022/12/17 20:51:28;;;;;;;1999.90;999.90;;;;;;;2.12;100.00;99079.31;5069489;28;20028;-81
2022/12/17 20:53:54;;;;;;;1999.90;999.90;;;;;;;2.03;100.00;99079.75;5053911;28;20370;-80
2022/12/17 20:56:25;;;;;;;1999.90;999.90;;;;;;;2.04;100.00;99082.22;5060309;28;20039;-83
2022/12/17 20:58:53;;;;;;;1999.90;999.90;;;;;;;2.03;100.00;99086.00;5059127;28;20029;-82
2022/12/17 21:01:21;;;;;;;1999.90;999.90;;;;;;;1.98;100.00;99093.88;5063190;28;20024;-84
2022/12/17 21:03:48;;;;;;;1999.90;999.90;;;;;;;2.10;100.00;99092.16;5082916;28;20028;-81
2022/12/17 21:06:22;;;;;;;1999.90;999.90;;;;;;;2.08;100.00;99094.25;5086087;28;20079;-80
2022/12/17 21:08:49;;;;;;;1999.90;999.90;;;;;;;2.11;100.00;99098.41;5069963;28;20025;-83
2022/12/17 21:11:22;;;;;;;1999.90;999.90;;;;;;;2.04;100.00;99095.72;5065998;28;20075;-83
2022/12/17 21:13:47;;;;;;;1999.90;999.90;;;;;;;2.07;100.00;99091.75;5082458;28;20024;-81
2022/12/17 21:16:19;;;;;;;1999.90;999.90;;;;;;;2.00;100.00;99104.47;5087774;28;20032;-85
2022/12/17 21:18:44;;;;;;;1999.90;999.90;;;;;;;2.03;100.00;99110.28;5073440;28;20051;-81
2022/12/17 21:21:15;;;;;;;1999.90;999.90;;;;;;;2.16;100.00;99112.91;5060311;28;20029;-81
2022/12/17 21:23:41;;;;;;;1999.90;999.90;;;;;;;2.11;100.00;99112.72;5069914;28;20032;-85
2022/12/17 21:26:11;;;;;;;1999.90;999.90;;;;;;;2.03;100.00;99114.84;5054865;28;20112;-84
2022/12/17 21:28:38;;;;;;;1999.90;999.90;;;;;;;2.05;100.00;99116.28;5049126;28;20072;-84
2022/12/17 21:31:04;;;;;;;1999.90;999.90;;;;;;;1.95;100.00;99110.47;5049107;28;20029;-85
2022/12/17 21:33:30;;;;;;;1999.90;999.90;;;;;;;2.04;100.00;99130.78;5070155;28;20041;-86
2022/12/17 21:35:58;;;;;;;1999.90;999.90;;;;;;;2.00;100.00;99131.44;5068403;28;20021;-86
2022/12/17 21:38:23;;;;;;;1999.90;999.90;;;;;;;1.98;100.00;99139.72;5068378;28;20025;-81
2022/12/17 21:40:48;;;;;;;1999.90;999.90;;;;;;;1.96;100.00;99138.28;5073620;28;20047;-84
2022/12/17 21:43:14;;;;;;;1999.90;999.90;;;;;;;1.93;100.00;99139.56;5088802;28;20032;-84
2022/12/17 21:45:41;;;;;;;1999.90;999.90;;;;;;;1.76;100.00;99138.31;5090035;28;20043;-88
2022/12/17 21:48:09;;;;;;;1999.90;999.90;;;;;;;1.80;100.00;99144.13;5087975;28;20024;-75
2022/12/17 21:50:38;;;;;;;1999.90;999.90;;;;;;;1.82;100.00;99137.47;5089238;28;20024;-85
2022/12/17 21:53:04;;;;;;;1999.90;999.90;;;;;;;1.67;100.00;99133.34;5088362;28;20050;-81
2022/12/17 21:55:29;;;;;;;1999.90;999.90;;;;;;;1.80;100.00;99133.34;5087194;28;20013;-83
2022/12/17 21:57:57;;;;;;;1999.90;999.90;;;;;;;1.79;100.00;99142.47;5070685;28;20029;-85
2022/12/17 22:00:23;;;;;;;1999.90;999.90;;;;;;;1.85;100.00;99128.97;5070991;28;20044;-86
2022/12/17 22:02:48;;;;;;;1999.90;999.90;;;;;;;1.73;100.00;99138.75;5069479;28;20025;-85
2022/12/17 22:05:14;;;;;;;1999.90;999.90;;;;;;;1.78;100.00;99140.81;5070214;28;20056;-86
2022/12/17 22:07:39;;;;;;;1999.90;999.90;;;;;;;1.74;100.00;99136.88;5089516;28;20095;-86
2022/12/17 22:10:05;;;;;;;1999.90;999.90;;;;;;;1.53;100.00;99117.22;5091735;28;20110;-83
2022/12/17 22:15:14;;;;;;;1999.90;999.90;;;;;;;1.64;100.00;99150.78;5071138;28;20099;-84
2022/12/17 22:17:39;;;;;;;1999.90;999.90;;;;;;;1.61;100.00;99145.81;5071764;28;20029;-84
2022/12/17 22:20:05;;;;;;;1999.90;999.90;;;;;;;1.83;100.00;99155.31;5074530;28;20022;-85
2022/12/17 22:22:31;;;;;;;1999.90;999.90;;;;;;;1.75;100.00;99152.88;5071779;28;20021;-82
2022/12/17 22:24:56;;;;;;;1999.90;999.90;;;;;;;1.76;100.00;99157.19;5067501;28;20055;-82
2022/12/17 22:27:22;;;;;;;1999.90;999.90;;;;;;;1.78;100.00;99167.78;5061906;28;20050;-83
2022/12/17 22:35:16;;;;;;;1999.90;999.90;;;;;;;1.82;100.00;99163.63;5067702;28;20031;-84
2022/12/17 22:37:41;;;;;;;1999.90;999.90;;;;;;;1.75;100.00;99170.91;5093089;28;20021;-84
2022/12/17 22:40:07;;;;;;;1999.90;999.90;;;;;;;1.82;100.00;99166.31;5096947;28;20088;-83
2022/12/17 22:45:16;;;;;;;1999.90;999.90;;;;;;;1.59;100.00;99164.06;5096911;28;20136;-84
2022/12/17 22:47:42;;;;;;;1999.90;999.90;;;;;;;1.63;100.00;99178.78;5077828;28;20470;-81
2022/12/17 22:50:07;;;;;;;1999.90;999.90;;;;;;;1.60;100.00;99176.50;5072528;28;20535;-84
2022/12/17 22:52:33;;;;;;;1999.90;999.90;;;;;;;1.62;100.00;99179.81;5068471;28;20037;-83
2022/12/17 22:54:58;;;;;;;1999.90;999.90;;;;;;;1.51;100.00;99161.56;5070165;28;20085;-85
2022/12/17 22:57:23;;;;;;;1999.90;999.90;;;;;;;1.58;100.00;99176.72;5071519;28;20037;-83
2022/12/17 22:59:49;;;;;;;1999.90;999.90;;;;;;;1.38;100.00;99172.38;5070121;28;20107;-81
2022/12/17 23:02:14;;;;;;;1999.90;999.90;;;;;;;1.28;100.00;99185.41;5083958;28;20050;-83
2022/12/17 23:04:40;;;;;;;1999.90;999.90;;;;;;;1.21;100.00;99179.19;5091557;28;20032;-86
2022/12/17 23:07:05;;;;;;;1999.90;999.90;;;;;;;1.08;100.00;99172.75;5081593;28;20064;-78
2022/12/17 23:09:31;;;;;;;1999.90;999.90;;;;;;;1.09;100.00;99189.72;5074266;28;20024;-82
2022/12/17 23:11:56;;;;;;;1999.90;999.90;;;;;;;0.99;100.00;99190.13;5085861;28;20031;-81
2022/12/17 23:14:21;;;;;;;1999.90;999.90;;;;;;;1.02;100.00;99188.88;5095055;28;20043;-87
2022/12/17 23:16:47;;;;;;;1999.90;999.90;;;;;;;0.95;100.00;99196.09;5084724;28;20025;-85
2022/12/17 23:19:13;;;;;;;1999.90;999.90;;;;;;;0.92;100.00;99194.66;5072450;28;20033;-85
2022/12/17 23:21:38;;;;;;;1999.90;999.90;;;;;;;0.85;100.00;99199.19;5073034;28;20024;-85
2022/12/17 23:24:04;;;;;;;1999.90;999.90;;;;;;;0.83;100.00;99197.72;5073175;28;20088;-84
2022/12/17 23:26:33;;;;;;;1999.90;999.90;;;;;;;0.74;100.00;99188.19;5068203;28;20025;-80
2022/12/17 23:29:01;;;;;;;1999.90;999.90;;;;;;;0.71;100.00;99200.19;5069727;28;20032;-84
2022/12/17 23:31:31;;;;;;;1999.90;999.90;;;;;;;0.76;100.00;99205.78;5069166;28;20446;-83
2022/12/17 23:33:56;;;;;;;1999.90;999.90;;;;;;;0.57;100.00;99206.53;5067016;28;20025;-84
2022/12/17 23:36:23;;;;;;;1999.90;999.90;;;;;;;0.65;100.00;99209.06;5067687;28;20029;-84
2022/12/17 23:38:49;;;;;;;1999.90;999.90;;;;;;;0.61;100.00;99217.72;5069985;28;20029;-84
2022/12/17 23:41:17;;;;;;;1999.90;999.90;;;;;;;0.65;100.00;99222.53;5070943;28;20059;-84
2022/12/17 23:43:43;;;;;;;1999.90;999.90;;;;;;;0.54;100.00;99228.47;5072945;28;20016;-86
2022/12/17 23:46:09;;;;;;;1999.90;999.90;;;;;;;0.64;100.00;99226.25;5072240;28;20115;-85
2022/12/17 23:48:38;;;;;;;1999.90;999.90;;;;;;;0.50;100.00;99221.84;5070109;28;20043;-88
2022/12/17 23:51:04;;;;;;;1999.90;999.90;;;;;;;0.46;100.00;99229.47;5068150;28;20071;-89
2022/12/17 23:53:31;;;;;;;1999.90;999.90;;;;;;;0.46;100.00;99218.72;5060299;28;20049;-82
2022/12/17 23:56:14;;;;;;;1999.90;999.90;;;;;;;0.58;100.00;99223.50;5064650;28;20033;-81
2022/12/17 23:58:41;;;;;;;1999.90;999.90;;;;;;;0.52;100.00;99219.78;5062740;28;20028;-83
